Time;durP1;ratioP1;P1;durP2;ratioP2;P2;SDS_P1;SDS_P2;PMS_P1;PMS_P2;Temp;Humidity;BMP_temperature;BMP_pressure;BME280_temperature;BME280_humidity;BME280_pressure;Samples;Min_cycle;Max_cycle;Signal;HPM_P1;HPM_P2
2023/04/17 00:01:42;;;;;;;23.35;17.25;;;;;;;11.05;73.30;102632.91;7396551;19;20019;-65
2023/04/17 00:04:11;;;;;;;22.10;16.92;;;;;;;11.04;73.43;102639.13;7394429;19;20027;-67
2023/04/17 00:06:42;;;;;;;22.77;16.55;;;;;;;11.03;73.51;102634.75;7390838;19;20022;-65
2023/04/17 00:09:10;;;;;;;23.38;17.50;;;;;;;11.01;73.73;102632.16;7394740;19;20119;-64
2023/04/17 00:11:38;;;;;;;23.15;17.20;;;;;;;10.87;73.95;102634.56;7395909;19;20022;-63
2023/04/17 00:14:05;;;;;;;21.50;17.20;;;;;;;10.95;73.74;102638.63;7394722;19;20031;-63
2023/04/17 00:16:32;;;;;;;23.73;17.75;;;;;;;11.00;73.28;102633.13;7393193;19;20031;-63
2023/04/17 00:18:59;;;;;;;25.38;17.77;;;;;;;11.03;73.33;102638.28;7395015;19;20086;-63
2023/04/17 00:21:28;;;;;;;22.33;16.65;;;;;;;11.06;73.16;102639.91;7391820;19;20025;-63
2023/04/17 00:23:55;;;;;;;19.95;16.08;;;;;;;11.03;73.33;102635.63;7395354;19;20018;-69
2023/04/17 00:26:23;;;;;;;22.95;17.05;;;;;;;11.06;73.00;102637.25;7392875;19;20049;-68
2023/04/17 00:28:50;;;;;;;22.77;16.73;;;;;;;10.99;73.06;102628.75;7393040;19;20022;-66
2023/04/17 00:31:17;;;;;;;23.40;16.35;;;;;;;11.06;72.77;102632.81;7393550;19;20015;-65
2023/04/17 00:33:45;;;;;;;23.77;17.90;;;;;;;11.06;72.99;102627.50;7394734;19;20015;-65
2023/04/17 00:36:14;;;;;;;22.48;16.92;;;;;;;11.06;72.85;102632.81;7392424;19;20011;-66
2023/04/17 00:38:41;;;;;;;25.40;17.55;;;;;;;11.10;72.67;102630.88;7391810;19;20022;-66
2023/04/17 00:41:08;;;;;;;23.58;17.45;;;;;;;11.10;72.65;102622.94;7394724;19;20014;-66
2023/04/17 00:43:35;;;;;;;27.38;18.85;;;;;;;11.03;72.74;102625.03;7394223;19;20025;-66
2023/04/17 00:46:03;;;;;;;23.08;17.83;;;;;;;11.06;72.98;102635.47;7392693;19;20082;-66
2023/04/17 00:48:32;;;;;;;25.55;18.42;;;;;;;11.03;72.56;102632.97;7393829;19;20025;-66
2023/04/17 00:51:01;;;;;;;21.05;16.55;;;;;;;11.02;72.71;102627.72;7393193;19;20018;-66
2023/04/17 00:53:31;;;;;;;23.05;17.70;;;;;;;11.01;72.75;102628.66;7393368;19;20022;-66
2023/04/17 00:56:00;;;;;;;24.17;18.42;;;;;;;10.96;72.92;102631.53;7392612;19;20020;-66
2023/04/17 00:58:27;;;;;;;25.67;18.05;;;;;;;10.98;72.93;102627.84;7391393;19;20026;-66
2023/04/17 01:00:54;;;;;;;23.15;17.60;;;;;;;10.98;72.86;102629.66;7394328;19;20021;-66
2023/04/17 01:03:21;;;;;;;25.30;18.48;;;;;;;10.97;73.07;102636.75;7392495;19;20104;-66
2023/04/17 01:05:51;;;;;;;24.73;18.10;;;;;;;11.06;72.62;102629.31;7390710;19;20010;-66
2023/04/17 01:08:18;;;;;;;25.67;18.70;;;;;;;10.98;72.79;102630.50;7392240;19;20026;-66
2023/04/17 01:10:45;;;;;;;25.38;19.42;;;;;;;10.98;72.72;102629.66;7394081;19;20504;-66
2023/04/17 01:13:12;;;;;;;26.67;18.88;;;;;;;11.00;72.80;102632.25;7393622;19;20034;-66
2023/04/17 01:15:39;;;;;;;24.88;17.98;;;;;;;11.00;72.72;102626.97;7391833;19;20014;-66
2023/04/17 01:18:06;;;;;;;23.58;17.23;;;;;;;11.01;72.55;102631.31;7390205;19;20030;-66
2023/04/17 01:20:33;;;;;;;25.15;19.42;;;;;;;10.98;72.71;102619.91;7392623;19;20052;-66
2023/04/17 01:23:00;;;;;;;24.63;18.65;;;;;;;10.96;72.94;102624.44;7393228;19;20524;-65
2023/04/17 01:25:27;;;;;;;25.90;19.75;;;;;;;11.04;72.73;102625.88;7391820;19;20023;-66
2023/04/17 01:27:55;;;;;;;25.77;19.58;;;;;;;11.05;72.55;102624.94;7391825;19;20029;-66
2023/04/17 01:30:22;;;;;;;26.27;19.48;;;;;;;10.97;72.82;102626.16;7390979;19;20018;-65
2023/04/17 01:32:52;;;;;;;26.35;19.40;;;;;;;10.90;73.19;102619.41;7393566;19;20018;-65
2023/04/17 01:35:19;;;;;;;26.33;19.77;;;;;;;10.87;73.23;102614.22;7391284;19;20031;-66
2023/04/17 01:37:46;;;;;;;28.13;20.48;;;;;;;10.81;73.30;102619.81;7392206;19;20019;-65
2023/04/17 01:40:13;;;;;;;28.00;19.67;;;;;;;10.88;72.97;102626.56;7392196;19;20499;-66
2023/04/17 01:42:40;;;;;;;26.48;20.10;;;;;;;10.87;73.01;102619.53;7392674;19;20078;-66
2023/04/17 01:45:08;;;;;;;25.58;19.90;;;;;;;10.91;72.79;102620.25;7389726;19;20026;-67
2023/04/17 01:47:34;;;;;;;27.17;20.90;;;;;;;10.91;72.82;102623.78;7392850;19;20011;-64
2023/04/17 01:50:02;;;;;;;26.98;19.73;;;;;;;10.98;72.50;102627.00;7392045;19;20108;-64
2023/04/17 01:52:30;;;;;;;28.38;21.10;;;;;;;10.91;72.58;102622.91;7392200;19;20348;-64
2023/04/17 01:54:57;;;;;;;26.33;20.45;;;;;;;10.96;72.65;102627.09;7390821;19;20022;-64
2023/04/17 01:57:24;;;;;;;28.20;20.35;;;;;;;10.94;72.68;102630.72;7390030;19;20086;-66
2023/04/17 01:59:51;;;;;;;28.15;21.23;;;;;;;10.80;73.04;102628.72;7391154;19;20029;-65
2023/04/17 02:02:20;;;;;;;29.98;20.55;;;;;;;10.83;73.17;102625.03;7392380;19;20361;-65
2023/04/17 02:04:47;;;;;;;27.02;20.70;;;;;;;10.77;73.29;102633.28;7389192;19;20018;-65
2023/04/17 02:07:15;;;;;;;28.88;21.23;;;;;;;10.78;73.33;102635.00;7390021;19;20032;-65
2023/04/17 02:09:42;;;;;;;28.83;20.02;;;;;;;10.79;73.18;102639.34;7389834;19;20082;-66
2023/04/17 02:12:09;;;;;;;29.17;20.92;;;;;;;10.84;73.03;102634.75;7390051;19;20049;-65
2023/04/17 02:14:36;;;;;;;27.42;20.77;;;;;;;10.77;73.29;102628.84;7389139;19;20031;-66
2023/04/17 02:17:03;;;;;;;29.33;21.15;;;;;;;10.81;72.81;102625.13;7389808;19;20018;-66
2023/04/17 02:19:30;;;;;;;27.58;21.17;;;;;;;10.79;72.96;102629.63;7390857;19;20029;-66
2023/04/17 02:21:57;;;;;;;24.73;19.70;;;;;;;10.82;72.90;102624.19;7391590;19;20014;-67
2023/04/17 02:24:24;;;;;;;28.30;20.52;;;;;;;10.82;72.84;102625.97;7389263;19;20035;-66
2023/04/17 02:26:51;;;;;;;29.38;20.77;;;;;;;10.66;73.39;102625.81;7391669;19;20025;-64
2023/04/17 02:29:18;;;;;;;26.55;20.25;;;;;;;10.68;73.35;102629.22;7390173;19;20015;-64
2023/04/17 02:31:45;;;;;;;31.00;21.13;;;;;;;10.70;73.34;102630.91;7390886;19;20565;-64
2023/04/17 02:34:12;;;;;;;31.27;20.88;;;;;;;10.66;73.50;102626.66;7390966;19;20014;-64
2023/04/17 02:36:40;;;;;;;27.52;20.60;;;;;;;10.67;73.47;102633.66;7388913;19;20018;-64
2023/04/17 02:39:07;;;;;;;28.15;20.50;;;;;;;10.70;73.13;102630.03;7387417;19;20098;-66
2023/04/17 02:41:34;;;;;;;30.73;21.65;;;;;;;10.68;73.35;102627.47;7390717;19;20018;-65
2023/04/17 02:44:01;;;;;;;25.25;19.42;;;;;;;10.68;73.53;102634.53;7391018;19;20010;-65
2023/04/17 02:46:28;;;;;;;29.10;21.52;;;;;;;10.68;73.26;102629.22;7388595;19;20082;-66
2023/04/17 02:48:55;;;;;;;27.45;20.65;;;;;;;10.60;73.74;102641.97;7388981;19;20019;-66
2023/04/17 02:51:22;;;;;;;30.27;22.45;;;;;;;10.57;73.59;102642.09;7388450;19;20018;-66
2023/04/17 02:53:49;;;;;;;28.92;22.38;;;;;;;10.61;73.78;102647.22;7389358;19;20025;-66
2023/04/17 02:56:16;;;;;;;26.40;20.65;;;;;;;10.59;73.56;102649.03;7388391;19;20022;-66
2023/04/17 02:58:44;;;;;;;27.50;21.33;;;;;;;10.65;73.35;102650.59;7388733;19;20090;-66
2023/04/17 03:01:11;;;;;;;26.13;19.60;;;;;;;10.65;73.35;102645.28;7390238;19;20011;-66
2023/04/17 03:03:40;;;;;;;26.00;20.85;;;;;;;10.62;73.65;102650.72;7390093;19;20017;-68
2023/04/17 03:06:08;;;;;;;26.08;18.55;;;;;;;10.61;73.73;102649.00;7387697;19;20039;-67
2023/04/17 03:08:37;;;;;;;28.90;20.05;;;;;;;10.63;73.64;102655.94;7389447;19;20014;-66
2023/04/17 03:11:05;;;;;;;26.38;20.15;;;;;;;10.55;73.70;102649.25;7389893;19;20497;-66
2023/04/17 03:13:38;;;;;;;27.33;20.55;;;;;;;10.61;73.73;102659.59;7390349;19;20019;-67
2023/04/17 03:16:05;;;;;;;28.07;19.67;;;;;;;10.65;73.51;102663.84;7386218;19;20039;-66
2023/04/17 03:18:34;;;;;;;29.58;20.30;;;;;;;10.63;73.63;102661.22;7386819;19;20044;-67
2023/04/17 03:21:01;;;;;;;27.83;20.70;;;;;;;10.64;73.63;102662.09;7389372;19;20039;-66
2023/04/17 03:23:28;;;;;;;26.85;20.02;;;;;;;10.60;73.63;102664.00;7390169;19;20039;-67
2023/04/17 03:25:59;;;;;;;26.90;20.73;;;;;;;10.65;73.17;102663.84;7387564;19;20039;-67
2023/04/17 03:28:26;;;;;;;29.92;21.08;;;;;;;10.60;73.35;102664.00;7389056;19;20037;-68
2023/04/17 03:30:56;;;;;;;27.75;19.90;;;;;;;10.59;73.24;102667.59;7387886;19;20025;-67
2023/04/17 03:33:24;;;;;;;28.20;20.08;;;;;;;10.56;73.33;102665.06;7390777;19;20011;-67
2023/04/17 03:35:51;;;;;;;27.88;19.45;;;;;;;10.50;73.39;102662.69;7385825;19;20047;-68
2023/04/17 03:38:18;;;;;;;26.88;19.33;;;;;;;10.44;74.15;102666.44;7388034;19;20023;-68
2023/04/17 03:40:45;;;;;;;26.67;20.52;;;;;;;10.49;73.66;102661.84;7387318;19;20015;-68
2023/04/17 03:43:12;;;;;;;27.80;20.55;;;;;;;10.47;73.83;102660.19;7395410;19;20018;-66
2023/04/17 03:45:39;;;;;;;28.00;19.48;;;;;;;10.42;74.08;102667.47;7393734;19;20014;-66
2023/04/17 03:48:06;;;;;;;27.90;20.05;;;;;;;10.32;74.53;102664.31;7396500;19;20015;-66
2023/04/17 03:50:34;;;;;;;26.40;19.20;;;;;;;10.50;73.79;102665.34;7396405;19;20096;-66
2023/04/17 03:53:01;;;;;;;27.65;20.55;;;;;;;10.54;73.71;102666.09;7396465;19;20039;-66
2023/04/17 03:55:28;;;;;;;28.50;20.48;;;;;;;10.55;73.66;102673.94;7394785;19;20022;-66
2023/04/17 03:57:55;;;;;;;29.73;21.00;;;;;;;10.52;73.44;102675.88;7395266;19;20014;-67
2023/04/17 04:00:22;;;;;;;26.10;19.30;;;;;;;10.35;74.34;102676.59;7395622;19;20015;-70
2023/04/17 04:02:49;;;;;;;27.77;20.55;;;;;;;10.41;74.27;102679.81;7395450;19;20018;-70
2023/04/17 04:05:16;;;;;;;29.23;21.20;;;;;;;10.42;74.08;102678.06;7394965;19;20015;-70
2023/04/17 04:07:43;;;;;;;28.70;20.13;;;;;;;10.45;73.75;102673.50;7394350;19;20027;-70
2023/04/17 04:10:10;;;;;;;26.80;19.58;;;;;;;10.45;73.59;102684.09;7395571;19;20022;-69
2023/04/17 04:12:37;;;;;;;32.38;20.48;;;;;;;10.46;73.67;102677.88;7395475;19;20028;-66
2023/04/17 04:15:05;;;;;;;26.98;20.20;;;;;;;10.47;73.37;102682.22;7394354;19;20085;-66
2023/04/17 04:17:32;;;;;;;28.30;20.77;;;;;;;10.43;73.56;102679.78;7395323;19;20018;-65
2023/04/17 04:19:59;;;;;;;29.00;20.67;;;;;;;10.43;73.87;102688.56;7395904;19;20047;-65
2023/04/17 04:22:27;;;;;;;29.23;20.20;;;;;;;10.45;73.67;102686.75;7393726;19;20029;-67
2023/04/17 04:24:55;;;;;;;26.33;20.45;;;;;;;10.45;73.66;102693.78;7394057;19;20081;-66
2023/04/17 04:27:22;;;;;;;29.52;20.92;;;;;;;10.44;73.81;102689.44;7394916;19;20022;-68
2023/04/17 04:29:49;;;;;;;30.05;20.67;;;;;;;10.46;73.51;102696.41;7393632;19;20010;-68
2023/04/17 04:32:16;;;;;;;28.98;21.58;;;;;;;10.46;73.63;102707.00;7393396;19;20018;-68
2023/04/17 04:34:43;;;;;;;29.70;21.38;;;;;;;10.46;73.72;102696.41;7393834;19;20529;-71
2023/04/17 04:37:14;;;;;;;28.08;20.67;;;;;;;10.46;73.49;102701.69;7394207;19;20022;-71
2023/04/17 04:39:42;;;;;;;26.73;20.60;;;;;;;10.46;73.93;102706.13;7392427;19;20089;-68
2023/04/17 04:42:09;;;;;;;27.40;20.50;;;;;;;10.43;73.79;102704.47;7393137;19;20039;-69
2023/04/17 04:44:38;;;;;;;26.63;20.10;;;;;;;10.39;74.23;102705.53;7394040;19;20094;-69
2023/04/17 04:47:05;;;;;;;29.88;22.05;;;;;;;10.41;73.81;102711.59;7394519;19;20022;-70
2023/04/17 04:49:32;;;;;;;28.88;20.92;;;;;;;10.41;74.24;102703.66;7393957;19;20018;-72
2023/04/17 04:51:59;;;;;;;32.35;21.90;;;;;;;10.51;73.74;102700.66;7393800;19;20019;-66
2023/04/17 04:54:26;;;;;;;27.42;21.05;;;;;;;10.56;73.29;102703.94;7392308;19;20015;-66
2023/04/17 04:56:53;;;;;;;31.70;22.35;;;;;;;10.40;73.86;102709.03;7391966;19;20101;-66
2023/04/17 04:59:20;;;;;;;26.83;21.05;;;;;;;10.35;74.33;102709.22;7390297;19;20085;-66
2023/04/17 05:01:48;;;;;;;28.17;21.73;;;;;;;10.40;73.89;102715.19;7394011;19;20015;-70
2023/04/17 05:04:15;;;;;;;30.67;21.92;;;;;;;10.45;73.81;102713.22;7392489;19;20023;-70
2023/04/17 05:06:42;;;;;;;29.50;20.85;;;;;;;10.50;73.38;102720.97;7392371;19;20021;-69
2023/04/17 05:09:09;;;;;;;29.25;20.92;;;;;;;10.50;73.56;102723.63;7393440;19;20015;-66
2023/04/17 05:11:36;;;;;;;27.10;20.08;;;;;;;10.44;73.90;102723.88;7393839;19;20047;-66
2023/04/17 05:14:03;;;;;;;30.33;22.63;;;;;;;10.45;73.64;102726.47;7392052;19;20014;-66
2023/04/17 05:16:30;;;;;;;29.83;23.15;;;;;;;10.54;73.62;102724.34;7391506;19;20037;-69
2023/04/17 05:18:57;;;;;;;31.23;22.83;;;;;;;10.54;73.51;102724.34;7391797;19;20081;-69
2023/04/17 05:21:24;;;;;;;30.42;22.58;;;;;;;10.54;73.71;102727.00;7393164;19;20026;-68
2023/04/17 05:23:52;;;;;;;29.77;21.92;;;;;;;10.53;73.50;102728.81;7391530;19;20357;-69
2023/04/17 05:26:22;;;;;;;27.70;21.63;;;;;;;10.34;74.29;102730.47;7391340;19;20069;-68
2023/04/17 05:28:49;;;;;;;30.40;20.98;;;;;;;10.47;74.15;102739.63;7392828;19;20074;-68
2023/04/17 05:31:16;;;;;;;29.70;21.88;;;;;;;10.53;73.85;102741.16;7393585;19;20010;-69
2023/04/17 05:33:44;;;;;;;31.30;22.45;;;;;;;10.60;73.56;102742.63;7391246;19;20024;-69
2023/04/17 05:36:10;;;;;;;30.13;21.63;;;;;;;10.68;73.53;102751.13;7391467;19;20019;-69
2023/04/17 05:38:37;;;;;;;31.70;22.45;;;;;;;10.64;73.56;102742.44;7391405;19;20022;-69
2023/04/17 05:41:06;;;;;;;28.67;21.00;;;;;;;10.68;73.47;102745.81;7392721;19;20018;-69
2023/04/17 05:43:33;;;;;;;30.23;22.55;;;;;;;10.70;73.49;102751.94;7392116;19;20055;-69
2023/04/17 05:46:00;;;;;;;27.55;21.50;;;;;;;10.73;73.42;102744.72;7391858;19;20023;-69
2023/04/17 05:48:28;;;;;;;30.00;21.40;;;;;;;10.74;73.19;102745.56;7390082;19;20027;-69
2023/04/17 05:50:56;;;;;;;28.10;21.90;;;;;;;10.75;73.24;102741.97;7392206;19;20607;-69
2023/04/17 05:53:26;;;;;;;30.35;22.10;;;;;;;10.83;72.99;102744.31;7392258;19;20021;-70
2023/04/17 05:55:53;;;;;;;29.98;21.40;;;;;;;10.71;73.73;102748.34;7389087;19;20469;-70
2023/04/17 05:58:20;;;;;;;29.52;21.55;;;;;;;10.83;73.05;102753.13;7390972;19;20368;-70
2023/04/17 06:00:51;;;;;;;31.67;22.25;;;;;;;10.80;73.04;102749.72;7390667;19;20030;-70
2023/04/17 06:03:18;;;;;;;29.77;22.05;;;;;;;10.81;73.17;102747.03;7391373;19;20117;-69
2023/04/17 06:05:46;;;;;;;31.13;22.13;;;;;;;10.88;72.96;102760.91;7388008;19;20018;-69
2023/04/17 06:08:13;;;;;;;31.38;22.92;;;;;;;10.94;72.71;102763.28;7392099;19;20015;-69
2023/04/17 06:10:40;;;;;;;33.25;23.45;;;;;;;10.88;73.20;102759.09;7389580;19;20021;-70
2023/04/17 06:13:07;;;;;;;30.92;23.55;;;;;;;10.93;72.87;102761.56;7391639;19;20026;-68
2023/04/17 06:15:35;;;;;;;29.60;22.92;;;;;;;10.89;73.23;102763.47;7390093;19;20093;-67
2023/04/17 06:18:02;;;;;;;30.42;23.90;;;;;;;10.88;73.32;102764.41;7391100;19;20018;-67
2023/04/17 06:20:29;;;;;;;29.40;22.35;;;;;;;10.95;73.36;102768.53;7389889;19;20018;-68
2023/04/17 06:22:56;;;;;;;30.50;24.08;;;;;;;11.05;73.24;102768.13;7391169;19;20021;-68
2023/04/17 06:25:23;;;;;;;31.05;22.02;;;;;;;10.97;73.07;102769.31;7388743;19;20110;-69
2023/04/17 06:27:50;;;;;;;31.23;24.38;;;;;;;11.12;72.99;102766.91;7391801;19;20019;-68
2023/04/17 06:30:17;;;;;;;33.85;24.08;;;;;;;11.11;72.84;102781.13;7389648;19;20022;-70
2023/04/17 06:32:44;;;;;;;36.05;23.98;;;;;;;11.20;72.49;102778.06;7390954;19;20010;-70
2023/04/17 06:35:11;;;;;;;33.67;24.50;;;;;;;11.19;72.60;102779.00;7388399;19;20022;-69
2023/04/17 06:37:38;;;;;;;31.55;24.75;;;;;;;11.29;72.29;102784.72;7391662;19;20044;-70
2023/04/17 06:40:06;;;;;;;33.72;24.83;;;;;;;11.31;72.19;102781.09;7389316;19;20091;-69
2023/04/17 06:42:34;;;;;;;32.75;24.85;;;;;;;11.38;71.85;102785.19;7389176;19;20018;-70
2023/04/17 06:45:01;;;;;;;31.48;24.08;;;;;;;11.35;71.83;102787.97;7389606;19;20025;-70
2023/04/17 06:47:28;;;;;;;32.92;25.92;;;;;;;11.46;71.79;102782.22;7389398;19;20040;-71
2023/04/17 06:49:56;;;;;;;32.95;26.15;;;;;;;11.49;71.84;102787.38;7388755;19;20042;-71
2023/04/17 06:52:23;;;;;;;32.15;24.40;;;;;;;11.51;71.49;102789.97;7389634;19;20082;-70
2023/04/17 06:54:54;;;;;;;31.95;23.95;;;;;;;11.60;71.30;102789.53;7387760;19;20472;-71
2023/04/17 06:57:21;;;;;;;30.95;23.67;;;;;;;11.67;71.49;102790.97;7390719;19;20015;-70
2023/04/17 06:59:48;;;;;;;30.95;24.90;;;;;;;11.71;71.27;102798.75;7388645;19;20048;-70
2023/04/17 07:02:16;;;;;;;32.38;24.85;;;;;;;11.72;71.49;102791.66;7390494;19;20019;-71
2023/04/17 07:04:43;;;;;;;30.77;23.67;;;;;;;11.71;71.63;102797.88;7389516;19;20018;-71
2023/04/17 07:07:11;;;;;;;32.67;26.38;;;;;;;11.74;71.73;102804.84;7388705;19;20066;-71
2023/04/17 07:09:41;;;;;;;38.00;26.08;;;;;;;11.76;71.40;102795.88;7388130;19;20022;-70
2023/04/17 07:12:08;;;;;;;32.50;24.33;;;;;;;11.77;71.59;102799.41;7388666;19;20018;-70
2023/04/17 07:14:37;;;;;;;32.15;25.20;;;;;;;11.82;71.19;102795.59;7387142;19;20029;-71
2023/04/17 07:17:04;;;;;;;34.58;24.90;;;;;;;11.87;71.20;102800.75;7392790;19;20018;-70
2023/04/17 07:19:32;;;;;;;32.55;25.30;;;;;;;11.99;70.89;102804.63;7395163;19;20010;-68
2023/04/17 07:21:59;;;;;;;33.92;25.23;;;;;;;12.05;70.81;102807.81;7397617;19;20039;-71
2023/04/17 07:24:26;;;;;;;33.35;25.10;;;;;;;12.15;70.75;102810.91;7396080;19;20040;-69
2023/04/17 07:26:53;;;;;;;34.03;25.27;;;;;;;12.17;70.56;102811.69;7395131;19;20040;-69
2023/04/17 07:29:20;;;;;;;33.03;25.35;;;;;;;12.22;70.54;102814.16;7396134;19;20026;-70
2023/04/17 07:31:47;;;;;;;32.53;24.88;;;;;;;12.25;70.66;102816.63;7396714;19;20010;-71
2023/04/17 07:34:14;;;;;;;31.50;24.40;;;;;;;12.35;70.52;102817.94;7395114;19;20022;-70
2023/04/17 07:36:42;;;;;;;35.88;25.63;;;;;;;12.35;70.16;102816.13;7395223;19;20015;-70
2023/04/17 07:39:09;;;;;;;35.03;25.05;;;;;;;12.39;69.64;102822.16;7394019;19;20033;-70
2023/04/17 07:41:36;;;;;;;31.60;23.75;;;;;;;12.37;69.41;102819.59;7396736;19;20020;-71
2023/04/17 07:44:04;;;;;;;30.85;23.00;;;;;;;12.36;68.80;102823.19;7396993;19;20520;-70
2023/04/17 07:46:31;;;;;;;33.08;24.00;;;;;;;12.46;68.59;102820.06;7391881;19;20015;-67
2023/04/17 07:48:58;;;;;;;30.17;21.40;;;;;;;12.45;67.76;102827.19;7394654;19;20134;-71
2023/04/17 07:51:26;;;;;;;32.15;22.02;;;;;;;12.44;67.75;102829.00;7394688;19;20010;-70
2023/04/17 07:53:53;;;;;;;29.50;22.48;;;;;;;12.41;67.74;102825.63;7396355;19;20026;-72
2023/04/17 07:56:20;;;;;;;28.85;21.23;;;;;;;12.29;68.06;102823.56;7391440;19;20026;-73
2023/04/17 07:58:50;;;;;;;31.13;21.85;;;;;;;12.26;68.38;102835.19;7395452;19;20029;-73
2023/04/17 08:01:17;;;;;;;28.48;22.42;;;;;;;12.25;68.60;102836.13;7395804;19;20498;-69
2023/04/17 08:03:47;;;;;;;28.05;20.85;;;;;;;12.36;68.25;102833.81;7396056;19;20022;-68
2023/04/17 08:06:15;;;;;;;29.45;20.95;;;;;;;12.45;67.57;102832.50;7393243;19;20010;-67
2023/04/17 08:08:46;;;;;;;27.00;20.17;;;;;;;12.50;67.23;102832.28;7395187;19;20025;-67
2023/04/17 08:11:13;;;;;;;26.50;19.33;;;;;;;12.55;66.66;102820.47;7395545;19;20043;-68
2023/04/17 08:13:40;;;;;;;24.35;18.23;;;;;;;12.61;65.88;102828.16;7396035;19;20018;-71
2023/04/17 08:16:08;;;;;;;27.42;18.73;;;;;;;12.65;64.84;102826.22;7392843;19;20029;-70
2023/04/17 08:18:36;;;;;;;25.50;18.15;;;;;;;12.68;64.50;102826.06;7395299;19;20019;-66
2023/04/17 08:21:03;;;;;;;23.48;18.00;;;;;;;12.67;64.02;102829.69;7393468;19;20114;-69
2023/04/17 08:23:30;;;;;;;25.88;18.95;;;;;;;12.75;64.18;102826.63;7394978;19;20040;-69
2023/04/17 08:25:57;;;;;;;27.13;18.60;;;;;;;12.73;64.36;102834.66;7392813;19;20487;-69
2023/04/17 08:28:25;;;;;;;25.17;18.25;;;;;;;12.71;64.68;102828.59;7392578;19;20089;-69
2023/04/17 08:30:52;;;;;;;25.25;17.77;;;;;;;12.74;64.99;102836.38;7393266;19;20010;-70
2023/04/17 08:33:19;;;;;;;26.70;18.52;;;;;;;12.75;64.32;102831.97;7393714;19;20026;-69
2023/04/17 08:35:48;;;;;;;25.13;17.67;;;;;;;12.77;63.93;102840.69;7392438;19;20029;-68
2023/04/17 08:38:15;;;;;;;21.52;16.30;;;;;;;12.86;63.80;102838.47;7394928;19;20026;-68
2023/04/17 08:40:45;;;;;;;24.92;17.58;;;;;;;12.82;63.18;102838.66;7391714;19;20089;-68
2023/04/17 08:43:14;;;;;;;24.77;16.85;;;;;;;12.85;62.75;102834.06;7393126;19;20010;-69
2023/04/17 08:45:52;;;;;;;23.20;15.77;;;;;;;12.87;61.64;102832.19;7392875;19;20019;-68
2023/04/17 08:48:21;;;;;;;21.30;15.35;;;;;;;12.89;61.76;102832.97;7393011;19;20095;-68
2023/04/17 08:50:52;;;;;;;20.08;13.25;;;;;;;12.90;59.44;102832.06;7394289;19;20532;-68
2023/04/17 08:53:19;;;;;;;20.58;14.18;;;;;;;12.94;59.84;102830.09;7393962;19;20502;-68
2023/04/17 08:55:47;;;;;;;22.65;14.55;;;;;;;13.04;60.32;102835.78;7391045;19;20439;-68
2023/04/17 08:58:15;;;;;;;21.08;15.13;;;;;;;13.11;60.47;102831.88;7393353;19;20143;-68
2023/04/17 09:00:43;;;;;;;21.77;15.52;;;;;;;13.21;60.62;102829.63;7390356;19;20029;-69
2023/04/17 09:03:12;;;;;;;19.40;13.35;;;;;;;13.34;60.41;102830.75;7393813;19;20022;-69
2023/04/17 09:05:44;;;;;;;21.10;13.38;;;;;;;13.37;58.46;102823.47;7392204;19;20491;-69
2023/04/17 09:08:19;;;;;;;19.08;13.50;;;;;;;13.38;58.85;102826.97;7393702;19;20022;-69
2023/04/17 09:10:49;;;;;;;21.65;12.70;;;;;;;13.33;58.49;102824.56;7393150;19;20515;-69
2023/04/17 09:13:23;;;;;;;16.83;11.95;;;;;;;13.35;57.55;102829.78;7393421;19;20022;-69
2023/04/17 09:16:08;;;;;;;17.52;11.85;;;;;;;13.41;57.02;102835.66;7391943;19;20015;-69
2023/04/17 09:18:37;;;;;;;17.67;11.60;;;;;;;13.37;57.14;102830.59;7392343;19;20073;-70
2023/04/17 09:21:06;;;;;;;17.15;9.90;;;;;;;13.46;55.79;102829.22;7390982;19;20086;-69
2023/04/17 09:23:50;;;;;;;15.75;9.77;;;;;;;13.55;53.72;102831.44;7391354;19;20022;-70
2023/04/17 09:26:20;;;;;;;17.77;9.45;;;;;;;13.51;54.50;102833.41;7391365;19;20018;-69
2023/04/17 09:29:07;;;;;;;15.68;10.27;;;;;;;13.58;54.57;102826.81;7390822;19;20030;-68
2023/04/17 09:31:36;;;;;;;16.67;10.98;;;;;;;13.57;54.53;102824.22;7393467;19;20361;-69
2023/04/17 09:34:06;;;;;;;18.85;10.88;;;;;;;13.64;54.54;102831.78;7392846;19;20019;-70
2023/04/17 09:36:36;;;;;;;16.33;10.68;;;;;;;13.70;53.92;102833.28;7389066;19;20014;-68
2023/04/17 09:39:23;;;;;;;16.13;10.95;;;;;;;13.79;54.01;102819.44;7390139;19;20031;-69
2023/04/17 09:42:05;;;;;;;16.45;9.98;;;;;;;13.87;53.50;102821.69;7392530;19;20031;-69
2023/04/17 09:44:35;;;;;;;18.98;10.90;;;;;;;13.86;53.03;102814.66;7391806;19;20032;-68
2023/04/17 09:47:04;;;;;;;17.35;10.52;;;;;;;13.90;52.85;102813.56;7391081;19;20023;-68
2023/04/17 09:49:43;;;;;;;16.45;10.38;;;;;;;13.95;52.33;102814.16;7393063;19;20015;-69
2023/04/17 09:52:11;;;;;;;14.32;9.77;;;;;;;13.86;52.73;102812.00;7392481;19;20026;-68
2023/04/17 09:54:38;;;;;;;17.55;10.30;;;;;;;13.91;52.67;102812.59;7391022;19;20048;-69
2023/04/17 09:57:07;;;;;;;18.48;10.90;;;;;;;14.00;52.49;102822.75;7391971;19;20015;-69
2023/04/17 09:59:44;;;;;;;15.25;10.77;;;;;;;13.99;52.26;102814.84;7391492;19;20043;-67
2023/04/17 10:02:12;;;;;;;16.50;10.43;;;;;;;14.02;52.35;102820.00;7393146;19;20061;-67
2023/04/17 10:04:41;;;;;;;15.30;10.43;;;;;;;14.08;52.06;102804.56;7394251;19;20018;-67
2023/04/17 10:07:08;;;;;;;16.90;10.10;;;;;;;14.06;52.30;102814.41;7394787;19;20035;-68
2023/04/17 10:09:35;;;;;;;14.45;10.38;;;;;;;14.18;52.21;102820.88;7392535;19;20026;-68
2023/04/17 10:12:04;;;;;;;16.73;10.05;;;;;;;14.22;51.80;102814.41;7391370;19;20057;-69
2023/04/17 10:14:35;;;;;;;16.92;10.23;;;;;;;14.14;51.98;102808.66;7390722;19;20022;-69
2023/04/17 10:17:22;;;;;;;25.48;15.90;;;;;;;14.23;51.96;102804.63;7391438;19;20035;-69
2023/04/17 10:19:50;;;;;;;16.38;10.77;;;;;;;14.20;51.95;102805.66;7390727;19;20125;-68
2023/04/17 10:22:19;;;;;;;17.35;9.45;;;;;;;14.33;52.00;102809.34;7389636;19;20013;-68
2023/04/17 10:25:14;;;;;;;14.75;9.25;;;;;;;14.33;49.76;102798.69;7391139;19;20018;-69
2023/04/17 10:27:44;;;;;;;15.10;8.93;;;;;;;14.29;50.24;102793.63;7390870;19;20026;-68
2023/04/17 10:30:12;;;;;;;16.15;8.93;;;;;;;14.34;49.94;102802.22;7390751;19;20594;-68
2023/04/17 10:32:41;;;;;;;14.05;9.43;;;;;;;14.36;49.74;102800.31;7389352;19;20029;-68
2023/04/17 10:35:18;;;;;;;14.25;9.45;;;;;;;14.36;49.69;102798.53;7390576;19;20026;-62
2023/04/17 10:37:50;;;;;;;;;;;;;;;14.29;49.69;102799.81;7390907;19;20040;-61
2023/04/17 10:40:28;;;;;;;13.80;9.25;;;;;;;14.33;50.37;102790.69;7389477;19;19922;-62
2023/04/17 10:43:13;;;;;;;18.45;10.30;;;;;;;14.44;49.16;102798.06;7390527;19;20029;-62
2023/04/17 10:46:03;;;;;;;14.90;9.30;;;;;;;14.49;48.86;102790.69;7387710;19;20543;-62
2023/04/17 10:48:33;;;;;;;14.13;8.90;;;;;;;14.53;49.12;102792.25;7389867;19;20018;-63
2023/04/17 10:51:22;;;;;;;13.82;9.10;;;;;;;14.62;49.00;102797.06;7392078;19;20019;-62
2023/04/17 10:53:54;;;;;;;14.65;10.35;;;;;;;14.67;49.87;102791.44;7396426;19;20526;-62
2023/04/17 10:56:26;;;;;;;17.02;11.13;;;;;;;14.76;50.34;102782.03;7395467;19;20464;-63
2023/04/17 10:59:00;;;;;;;13.88;10.15;;;;;;;14.79;50.24;102771.19;7396177;19;20048;-63
2023/04/17 11:01:38;;;;;;;17.90;11.18;;;;;;;14.80;50.34;102784.44;7395798;19;20381;-62
2023/04/17 11:04:07;;;;;;;18.10;11.18;;;;;;;14.69;50.57;102784.22;7395760;19;20122;-62
2023/04/17 11:06:41;;;;;;;17.63;11.60;;;;;;;14.68;50.65;102782.50;7394767;19;20022;-62
2023/04/17 11:09:09;;;;;;;16.55;11.10;;;;;;;14.75;50.46;102773.19;7397429;19;20089;-63
2023/04/17 11:11:39;;;;;;;15.77;10.30;;;;;;;14.81;50.16;102772.84;7397387;19;20018;-63
2023/04/17 11:14:19;;;;;;;20.38;11.15;;;;;;;14.92;50.52;102772.22;7395882;19;20039;-63
2023/04/17 11:16:48;;;;;;;15.73;11.00;;;;;;;15.00;50.21;102782.41;7396080;19;20011;-63